Time;durP1;ratioP1;P1;durP2;ratioP2;P2;SDS_P1;SDS_P2;PMS_P1;PMS_P2;Temp;Humidity;BMP_temperature;BMP_pressure;BME280_temperature;BME280_humidity;BME280_pressure;Samples;Min_cycle;Max_cycle;Signal;HPM_P1;HPM_P2
2022/06/06 00:00:21;;;;;;;1.53;0.90;;;19.50;99.90;;;;;;5082949;28;20692;-87
2022/06/06 00:02:52;;;;;;;0.93;0.90;;;19.50;99.90;;;;;;5074938;28;20210;-88
2022/06/06 00:05:24;;;;;;;1.73;0.90;;;19.50;99.90;;;;;;5071656;28;20186;-90
2022/06/06 00:07:50;;;;;;;0.80;0.80;;;19.60;99.90;;;;;;5091763;28;20168;-96
2022/06/06 00:10:16;;;;;;;7.33;0.97;;;19.60;99.90;;;;;;5090378;28;20167;-96
2022/06/06 00:12:48;;;;;;;1.17;0.93;;;19.60;99.90;;;;;;5144790;23;20179;-88
2022/06/06 00:15:16;;;;;;;0.60;0.60;;;19.60;99.90;;;;;;5071688;28;20179;-92
2022/06/06 00:17:42;;;;;;;0.60;0.60;;;19.70;99.90;;;;;;5092260;23;20263;-88
2022/06/06 00:20:09;;;;;;;1.27;0.80;;;19.70;99.90;;;;;;5060937;28;20167;-91
2022/06/06 00:22:35;;;;;;;0.97;0.70;;;19.70;99.90;;;;;;5146699;23;20207;-94
2022/06/06 00:25:18;;;;;;;0.63;0.63;;;19.70;99.90;;;;;;5221249;22;20229;-88
2022/06/06 00:28:05;;;;;;;2.53;1.07;;;19.60;99.90;;;;;;5065810;23;20203;-87
2022/06/06 00:30:31;;;;;;;1.97;0.57;;;19.70;99.90;;;;;;5059998;28;20226;-90
2022/06/06 00:38:36;;;;;;;0.70;0.70;;;19.80;99.90;;;;;;5232050;23;20235;-85
2022/06/06 00:41:02;;;;;;;1.70;0.60;;;19.80;99.90;;;;;;5052591;23;20255;-89
2022/06/06 00:43:28;;;;;;;1.17;0.80;;;19.80;99.90;;;;;;5058000;28;20180;-86
2022/06/06 00:45:56;;;;;;;2.07;0.93;;;19.80;99.90;;;;;;5056471;28;20199;-89
2022/06/06 00:48:40;;;;;;;0.70;0.70;;;19.80;99.90;;;;;;5097378;23;20361;-95
2022/06/06 00:51:22;;;;;;;1.33;1.23;;;19.80;99.90;;;;;;5098793;28;20210;-93
2022/06/06 00:54:07;;;;;;;2.20;1.50;;;19.70;99.90;;;;;;5094050;28;20139;-86
2022/06/06 00:56:42;;;;;;;0.90;0.90;;;19.60;99.90;;;;;;5096165;28;20193;-86
2022/06/06 00:59:32;;;;;;;1.20;1.13;;;19.60;99.90;;;;;;5095118;28;20166;-86
2022/06/06 01:02:04;;;;;;;1.30;1.20;;;19.50;99.90;;;;;;5095641;28;20187;-88
2022/06/06 01:04:42;;;;;;;2.00;1.03;;;19.50;99.90;;;;;;5093986;28;20247;-87
2022/06/06 01:07:11;;;;;;;3.33;1.23;;;19.40;99.90;;;;;;5092927;28;20204;-87
2022/06/06 01:09:41;;;;;;;1.60;1.07;;;19.20;99.90;;;;;;5089993;28;20706;-86
2022/06/06 01:12:18;;;;;;;1.37;1.00;;;19.10;99.90;;;;;;5087371;28;20228;-87
2022/06/06 01:14:52;;;;;;;1.10;0.93;;;19.00;99.90;;;;;;5072511;28;20205;-89
2022/06/06 01:18:16;;;;;;;1.00;1.00;;;19.00;99.90;;;;;;5084878;28;20182;-90
2022/06/06 01:21:11;;;;;;;3.03;0.90;;;19.00;99.90;;;;;;4994955;28;20198;-87
2022/06/06 01:24:28;;;;;;;0.80;0.80;;;19.00;99.90;;;;;;4997602;28;20178;-87
2022/06/06 01:27:33;;;;;;;1.23;0.90;;;18.90;99.90;;;;;;4926533;29;20599;-87
2022/06/06 01:30:34;;;;;;;1.37;0.90;;;18.80;99.90;;;;;;4983224;28;20166;-87
2022/06/06 01:33:07;;;;;;;1.00;1.00;;;18.80;99.90;;;;;;4981303;28;20738;-86
2022/06/06 01:35:42;;;;;;;1.80;1.27;;;18.90;99.90;;;;;;4957873;23;20269;-86
2022/06/06 01:38:11;;;;;;;2.00;1.20;;;18.90;99.90;;;;;;5019241;28;20257;-87
2022/06/06 01:40:59;;;;;;;1.30;1.20;;;18.90;99.90;;;;;;5002991;28;20390;-87
2022/06/06 01:43:43;;;;;;;1.07;0.97;;;18.90;99.90;;;;;;4998358;28;20712;-85
2022/06/06 01:46:25;;;;;;;1.30;1.20;;;18.90;99.90;;;;;;4997021;28;20538;-88
2022/06/06 01:48:54;;;;;;;1.30;1.20;;;18.80;99.90;;;;;;5044041;23;20267;-91
2022/06/06 01:51:39;;;;;;;1.27;1.10;;;18.90;99.90;;;;;;5012962;28;20236;-94
2022/06/06 01:54:06;;;;;;;2.33;1.10;;;18.90;99.90;;;;;;5028003;28;20185;-89
2022/06/06 01:56:40;;;;;;;1.30;1.10;;;18.90;99.90;;;;;;5011272;28;20177;-86
2022/06/06 01:59:09;;;;;;;2.90;1.13;;;18.70;99.90;;;;;;5016847;28;20216;-89
2022/06/06 02:01:35;;;;;;;1.47;1.37;;;18.70;99.90;;;;;;5014877;28;20204;-86
2022/06/06 02:04:13;;;;;;;3.50;1.20;;;18.70;99.90;;;;;;5028568;28;20177;-86
2022/06/06 02:06:40;;;;;;;1.67;1.27;;;18.70;99.90;;;;;;5008022;28;20185;-87
2022/06/06 02:09:10;;;;;;;2.07;1.47;;;18.70;99.90;;;;;;5034479;28;20161;-89
2022/06/06 02:11:39;;;;;;;2.30;1.40;;;18.60;99.90;;;;;;5022129;28;20205;-86
2022/06/06 02:14:21;;;;;;;1.50;1.37;;;18.60;99.90;;;;;;5019895;28;20153;-86
2022/06/06 02:16:48;;;;;;;5.20;1.40;;;18.60;99.90;;;;;;5035072;28;20211;-88
2022/06/06 02:19:34;;;;;;;1.40;1.30;;;18.60;99.90;;;;;;5034747;28;20185;-86
2022/06/06 02:22:00;;;;;;;1.20;1.10;;;18.60;99.90;;;;;;5027167;23;20239;-86
2022/06/06 02:24:26;;;;;;;1.70;1.30;;;18.70;99.90;;;;;;5033139;28;20264;-86
2022/06/06 02:26:57;;;;;;;2.13;1.10;;;18.70;99.90;;;;;;5033399;28;20177;-87
2022/06/06 02:29:47;;;;;;;1.60;1.50;;;18.80;99.90;;;;;;5033876;28;20177;-87
2022/06/06 02:32:22;;;;;;;1.40;1.30;;;18.80;99.90;;;;;;5032796;28;20196;-86
2022/06/06 02:35:18;;;;;;;1.83;1.20;;;18.80;99.90;;;;;;5035001;28;20161;-87
2022/06/06 02:37:46;;;;;;;1.30;1.30;;;18.70;99.90;;;;;;5021381;23;20228;-86
2022/06/06 02:40:21;;;;;;;2.33;1.20;;;18.80;99.90;;;;;;5015325;28;20185;-86
2022/06/06 02:42:49;;;;;;;1.20;1.20;;;18.80;99.90;;;;;;5033455;28;20193;-90
2022/06/06 02:45:19;;;;;;;1.50;1.40;;;18.70;99.90;;;;;;5037952;28;20164;-92
2022/06/06 02:47:49;;;;;;;2.13;1.30;;;18.80;99.90;;;;;;5042353;28;20153;-89
2022/06/06 02:50:21;;;;;;;1.50;1.40;;;18.70;99.90;;;;;;5024814;28;20189;-87
2022/06/06 02:52:52;;;;;;;1.53;1.40;;;18.80;99.90;;;;;;5021350;28;20201;-92
2022/06/06 02:55:19;;;;;;;2.20;1.40;;;18.70;99.90;;;;;;5048341;23;20369;-92
2022/06/06 02:57:52;;;;;;;1.20;1.20;;;18.70;99.90;;;;;;5041838;28;20200;-86
2022/06/06 03:00:33;;;;;;;2.13;1.67;;;18.70;99.90;;;;;;5041523;28;20149;-89
2022/06/06 03:03:08;;;;;;;1.73;1.20;;;18.70;99.90;;;;;;5039633;28;20173;-87
2022/06/06 03:06:04;;;;;;;1.53;1.33;;;18.70;99.90;;;;;;5041761;28;20225;-87
2022/06/06 03:09:14;;;;;;;1.53;1.43;;;18.60;99.90;;;;;;5008810;28;20185;-86
2022/06/06 03:12:14;;;;;;;1.50;1.40;;;18.70;99.90;;;;;;5041755;28;20249;-87
2022/06/06 03:15:14;;;;;;;2.37;1.57;;;18.80;99.90;;;;;;4992281;28;20208;-90
2022/06/06 03:22:18;;;;;;;1.27;1.17;;;18.80;99.90;;;;;;4945364;29;20283;-90
2022/06/06 03:24:58;;;;;;;1.20;1.20;;;18.80;99.90;;;;;;4944155;29;20188;-92
2022/06/06 03:27:37;;;;;;;2.20;1.63;;;18.70;99.90;;;;;;4957523;29;20267;-86
2022/06/06 03:30:07;;;;;;;1.30;1.30;;;18.70;99.90;;;;;;4945771;29;20190;-86
2022/06/06 03:36:18;;;;;;;1.83;1.50;;;18.70;99.90;;;;;;5085481;23;20244;-87
2022/06/06 03:39:18;;;;;;;1.83;1.30;;;18.80;99.90;;;;;;5015592;28;20180;-89
2022/06/06 03:42:24;;;;;;;3.93;1.53;;;18.80;99.90;;;;;;5040746;28;20166;-90
2022/06/06 03:45:38;;;;;;;3.73;1.40;;;18.80;99.90;;;;;;4989528;28;20185;-88
2022/06/06 03:48:19;;;;;;;1.30;1.20;;;18.70;99.90;;;;;;4941007;29;20296;-94
2022/06/06 03:51:17;;;;;;;2.67;1.70;;;18.80;99.90;;;;;;4939752;29;20275;-86
2022/06/06 03:54:43;;;;;;;2.37;1.63;;;18.70;99.90;;;;;;4943443;29;20181;-86
2022/06/06 03:57:17;;;;;;;1.63;1.50;;;18.80;99.90;;;;;;4980942;23;20245;-86
2022/06/06 04:00:06;;;;;;;3.27;1.50;;;18.80;99.90;;;;;;5018479;28;20173;-86
2022/06/06 04:02:37;;;;;;;1.37;1.27;;;18.80;99.90;;;;;;5052081;23;20189;-85
2022/06/06 04:05:13;;;;;;;1.93;1.70;;;18.90;99.90;;;;;;5049371;23;20246;-86
2022/06/06 04:07:39;;;;;;;2.00;1.40;;;18.90;99.90;;;;;;5098187;23;20220;-87
2022/06/06 04:10:13;;;;;;;5.27;1.70;;;18.90;99.90;;;;;;5059580;28;20175;-87
2022/06/06 04:13:05;;;;;;;1.93;1.40;;;18.90;99.90;;;;;;5074271;23;20215;-84
2022/06/06 04:16:09;;;;;;;1.77;1.30;;;18.90;99.90;;;;;;5060171;28;20199;-85
2022/06/06 04:19:12;;;;;;;1.50;1.40;;;19.00;99.90;;;;;;5071756;28;20262;-87
2022/06/06 04:22:08;;;;;;;2.13;1.50;;;19.00;99.90;;;;;;5051760;28;20193;-87
2022/06/06 04:25:25;;;;;;;2.10;1.40;;;19.10;99.90;;;;;;5076041;28;20176;-87
2022/06/06 04:28:20;;;;;;;1.43;1.30;;;19.10;99.90;;;;;;5015806;23;20208;-87
2022/06/06 04:31:17;;;;;;;1.17;1.17;;;19.20;99.90;;;;;;5066220;23;20245;-87
2022/06/06 04:33:53;;;;;;;2.20;1.50;;;19.20;99.90;;;;;;5080086;28;20190;-88
2022/06/06 04:36:47;;;;;;;1.30;1.30;;;19.30;99.90;;;;;;5098682;28;20163;-90
2022/06/06 04:41:58;;;;;;;3.17;1.40;;;19.30;99.90;;;;;;5070104;23;20242;-86
2022/06/06 04:44:48;;;;;;;1.80;1.70;;;19.30;99.90;;;;;;5059149;28;20531;-89
2022/06/06 04:47:54;;;;;;;1.40;1.30;;;19.20;99.90;;;;;;5076286;28;20160;-86
2022/06/06 04:50:28;;;;;;;1.37;1.27;;;19.30;99.90;;;;;;5013431;28;20177;-89
2022/06/06 04:53:08;;;;;;;1.57;1.47;;;19.30;99.90;;;;;;4973656;29;20246;-87
2022/06/06 04:55:37;;;;;;;1.30;1.30;;;19.20;99.90;;;;;;4974328;28;20202;-87
2022/06/06 04:58:12;;;;;;;2.43;1.37;;;19.20;99.90;;;;;;4976451;29;20182;-86
2022/06/06 05:03:07;;;;;;;1.63;1.40;;;19.20;99.90;;;;;;5157684;23;20231;-88
2022/06/06 05:06:21;;;;;;;1.43;1.30;;;19.30;99.90;;;;;;5071345;23;20265;-87
2022/06/06 05:09:11;;;;;;;3.13;1.47;;;19.30;99.90;;;;;;4995255;28;20296;-87
2022/06/06 05:12:03;;;;;;;1.40;1.30;;;19.30;99.90;;;;;;5016921;28;20220;-87
2022/06/06 05:14:33;;;;;;;1.40;1.30;;;19.30;99.90;;;;;;5012506;28;20248;-90
2022/06/06 05:17:18;;;;;;;2.20;1.43;;;19.30;99.90;;;;;;5102740;22;20233;-87
2022/06/06 05:20:08;;;;;;;1.53;1.53;;;19.30;99.90;;;;;;5056200;28;20163;-86
2022/06/06 05:23:10;;;;;;;1.83;1.33;;;19.30;99.90;;;;;;5155659;23;20247;-86
2022/06/06 05:26:13;;;;;;;1.57;1.47;;;19.30;99.90;;;;;;5073203;28;20215;-87
2022/06/06 05:28:59;;;;;;;1.70;1.60;;;19.40;99.90;;;;;;5107002;22;20255;-87
2022/06/06 05:31:44;;;;;;;1.70;1.40;;;19.30;99.90;;;;;;5233984;23;20266;-88
2022/06/06 05:34:18;;;;;;;2.00;1.90;;;19.40;99.90;;;;;;5071813;28;20173;-87
2022/06/06 05:37:19;;;;;;;1.40;1.30;;;19.40;99.90;;;;;;5057320;28;20189;-87
2022/06/06 05:40:12;;;;;;;1.40;1.23;;;19.30;99.90;;;;;;5053408;28;20180;-88
2022/06/06 05:43:04;;;;;;;2.40;1.77;;;19.30;99.90;;;;;;5053459;28;20185;-89
2022/06/06 05:45:42;;;;;;;2.57;1.60;;;19.30;99.90;;;;;;5048020;28;20180;-87
2022/06/06 05:48:33;;;;;;;2.83;1.47;;;19.30;99.90;;;;;;5055892;28;20184;-92
2022/06/06 05:51:20;;;;;;;2.03;1.70;;;19.50;99.90;;;;;;5056342;28;20232;-95
2022/06/06 05:54:20;;;;;;;1.60;1.50;;;19.60;99.90;;;;;;5053288;28;20172;-88
2022/06/06 05:57:14;;;;;;;8.30;1.60;;;19.70;99.90;;;;;;5052724;28;20171;-94
2022/06/06 06:00:27;;;;;;;1.70;1.60;;;19.80;99.90;;;;;;5053918;28;20148;-88
2022/06/06 06:03:48;;;;;;;1.67;1.57;;;19.80;99.90;;;;;;5065037;28;20176;-87
2022/06/06 06:06:53;;;;;;;1.70;1.60;;;19.90;99.90;;;;;;5068677;28;20203;-86
2022/06/06 06:12:33;;;;;;;2.40;1.77;;;20.10;99.90;;;;;;5068442;23;20245;-87
2022/06/06 06:15:28;;;;;;;2.17;1.50;;;;;;;;;;5023438;28;20263;-86
2022/06/06 06:17:56;;;;;;;1.60;1.50;;;;;;;;;;5060957;28;20191;-87
2022/06/06 06:20:33;;;;;;;1.93;1.63;;;20.70;99.90;;;;;;5059136;28;20539;-86
2022/06/06 06:23:11;;;;;;;1.40;1.30;;;20.90;99.90;;;;;;5061946;23;20263;-87
2022/06/06 06:25:40;;;;;;;2.23;1.50;;;21.00;99.90;;;;;;5059395;28;20160;-86
2022/06/06 06:28:14;;;;;;;1.43;1.33;;;21.10;99.90;;;;;;5046633;28;20186;-91
2022/06/06 06:31:09;;;;;;;2.10;1.50;;;21.40;99.90;;;;;;5059776;28;20198;-92
2022/06/06 06:34:14;;;;;;;1.53;1.40;;;21.70;99.90;;;;;;5067091;28;20631;-85
2022/06/06 06:37:09;;;;;;;1.60;1.50;;;22.00;99.90;;;;;;5130802;23;20164;-85
2022/06/06 06:40:06;;;;;;;3.77;1.70;;;22.00;99.90;;;;;;5061636;28;20206;-87
2022/06/06 06:42:49;;;;;;;2.80;1.43;;;22.00;99.90;;;;;;5071854;28;20406;-89
2022/06/06 06:45:18;;;;;;;1.20;1.20;;;22.00;99.90;;;;;;5073080;28;20181;-87
2022/06/06 06:47:49;;;;;;;1.40;1.30;;;22.00;99.90;;;;;;5071448;28;20176;-88
2022/06/06 06:50:23;;;;;;;1.70;1.03;;;22.00;99.90;;;;;;5064039;28;20183;-93
2022/06/06 06:52:48;;;;;;;1.20;1.20;;;22.00;99.90;;;;;;5056765;28;20565;-90
2022/06/06 06:55:47;;;;;;;2.00;1.47;;;22.00;99.90;;;;;;5064599;28;20160;-87
2022/06/06 06:58:32;;;;;;;1.60;1.50;;;22.00;99.90;;;;;;5062327;28;20180;-94
2022/06/06 07:01:12;;;;;;;1.10;1.10;;;22.00;99.90;;;;;;5066037;28;20167;-88
2022/06/06 07:09:49;;;;;;;1.40;1.30;;;22.00;99.90;;;;;;5036705;28;20183;-92
2022/06/06 07:12:34;;;;;;;1.33;1.20;;;22.00;99.90;;;;;;5034928;28;20311;-94
2022/06/06 07:15:18;;;;;;;3.07;1.30;;;21.90;99.90;;;;;;5033955;28;20235;-95
2022/06/06 07:17:58;;;;;;;2.60;1.30;;;22.00;99.90;;;;;;5050989;28;20193;-89
2022/06/06 07:20:26;;;;;;;1.10;1.10;;;22.00;99.90;;;;;;5059253;28;20180;-90
2022/06/06 07:23:05;;;;;;;1.77;1.30;;;22.10;99.90;;;;;;5043658;28;20181;-93
2022/06/06 07:25:38;;;;;;;2.80;1.20;;;22.00;99.90;;;;;;5043126;28;20159;-90
2022/06/06 07:28:24;;;;;;;1.30;1.20;;;22.00;99.90;;;;;;5039087;28;20185;-95
2022/06/06 07:31:19;;;;;;;1.20;1.10;;;22.00;99.90;;;;;;5039744;28;20598;-96
2022/06/06 07:33:57;;;;;;;1.27;1.17;;;22.00;99.90;;;;;;5040658;28;20261;-94
2022/06/06 07:36:56;;;;;;;1.80;1.40;;;22.00;99.90;;;;;;5036736;28;20172;-94
2022/06/06 07:39:40;;;;;;;2.67;1.40;;;22.20;99.90;;;;;;5036166;28;20228;-94
2022/06/06 07:42:15;;;;;;;1.17;1.17;;;22.30;99.90;;;;;;5037489;28;20165;-96
2022/06/06 07:45:09;;;;;;;2.57;1.30;;;22.40;99.90;;;;;;5038003;28;20167;-93
2022/06/06 07:47:40;;;;;;;1.60;1.40;;;22.30;99.90;;;;;;5037521;28;20181;-95
2022/06/06 07:50:47;;;;;;;1.33;1.33;;;22.30;99.90;;;;;;5038820;28;20191;-95
2022/06/06 07:53:29;;;;;;;1.53;1.43;;;22.30;99.90;;;;;;4961109;29;20191;-88
2022/06/06 07:56:00;;;;;;;1.43;1.43;;;22.40;99.90;;;;;;4940367;29;20191;-88
2022/06/06 07:58:41;;;;;;;1.03;1.03;;;22.40;99.90;;;;;;4954955;28;20520;-87
2022/06/06 08:01:20;;;;;;;1.33;1.30;;;22.50;99.90;;;;;;4955058;29;20191;-87
2022/06/06 08:04:29;;;;;;;1.02;1.02;;;22.50;99.90;;;;;;4938999;29;20588;-86
2022/06/06 08:07:19;;;;;;;1.50;1.40;;;22.40;99.90;;;;;;4949670;29;20672;-86
2022/06/06 08:10:17;;;;;;;1.50;1.40;;;22.50;99.90;;;;;;4961938;29;20174;-88
2022/06/06 08:13:13;;;;;;;1.30;1.30;;;22.60;99.90;;;;;;4969587;29;20230;-92
2022/06/06 08:16:09;;;;;;;1.50;1.40;;;22.70;99.90;;;;;;4958509;28;20584;-86
2022/06/06 08:19:12;;;;;;;2.10;1.98;;;22.70;99.90;;;;;;4956059;28;20243;-92
2022/06/06 08:21:40;;;;;;;1.73;1.58;;;22.60;99.90;;;;;;4959097;29;20195;-92
2022/06/06 08:24:14;;;;;;;2.20;1.20;;;22.70;99.90;;;;;;5011016;28;20173;-91
2022/06/06 08:26:41;;;;;;;2.93;1.43;;;22.70;99.90;;;;;;5051078;28;20176;-92
2022/06/06 08:29:10;;;;;;;1.35;1.33;;;22.70;99.90;;;;;;5040129;28;20176;-90
2022/06/06 08:31:36;;;;;;;2.28;1.45;;;22.70;99.90;;;;;;5041273;28;20204;-93
2022/06/06 08:34:03;;;;;;;1.55;1.45;;;22.80;99.90;;;;;;5039120;28;20200;-91
2022/06/06 08:36:49;;;;;;;2.72;1.75;;;22.80;99.90;;;;;;5034492;28;20180;-92
2022/06/06 08:39:18;;;;;;;3.50;1.58;;;22.80;99.90;;;;;;5037872;28;20216;-93
2022/06/06 08:41:56;;;;;;;1.80;1.30;;;22.80;99.90;;;;;;5039098;28;20179;-96
2022/06/06 08:44:26;;;;;;;2.63;1.40;;;22.90;99.90;;;;;;5040785;28;20259;-94
2022/06/06 08:47:15;;;;;;;1.60;1.50;;;22.90;99.90;;;;;;5040555;28;20165;-92
2022/06/06 08:53:15;;;;;;;1.67;1.30;;;22.90;99.90;;;;;;5040159;28;20226;-95
2022/06/06 08:56:16;;;;;;;1.70;1.60;;;23.00;99.90;;;;;;5045745;28;20728;-87
2022/06/06 08:58:42;;;;;;;1.13;1.10;;;23.00;99.90;;;;;;4964452;29;20202;-88
2022/06/06 09:01:53;;;;;;;1.45;1.30;;;23.00;99.90;;;;;;4956819;28;20178;-92
2022/06/06 09:04:43;;;;;;;1.42;1.33;;;23.10;99.90;;;;;;4988320;28;20181;-90
2022/06/06 09:07:36;;;;;;;1.42;1.25;;;23.10;99.90;;;;;;4979257;28;20190;-88
2022/06/06 09:10:36;;;;;;;1.38;1.27;;;23.10;99.90;;;;;;4988938;28;20186;-87
2022/06/06 09:13:35;;;;;;;1.27;1.27;;;23.20;99.90;;;;;;4989114;28;20186;-87
2022/06/06 09:16:37;;;;;;;1.30;1.30;;;23.20;99.90;;;;;;4986598;28;20265;-88
2022/06/06 09:19:17;;;;;;;1.50;1.40;;;23.30;99.90;;;;;;4981472;28;20174;-90
2022/06/06 09:22:00;;;;;;;1.30;1.30;;;23.40;99.90;;;;;;4979364;28;20191;-91
2022/06/06 09:24:34;;;;;;;1.50;1.40;;;23.60;99.90;;;;;;4977425;28;20170;-93
2022/06/06 09:27:20;;;;;;;1.35;1.35;;;23.70;99.90;;;;;;4974139;28;20197;-89
2022/06/06 09:30:07;;;;;;;2.15;1.63;;;23.80;99.90;;;;;;4974480;28;20251;-90
2022/06/06 09:32:38;;;;;;;2.55;1.42;;;23.80;99.90;;;;;;4973600;28;20206;-91
2022/06/06 09:35:04;;;;;;;1.38;1.30;;;23.80;99.90;;;;;;5040447;28;20176;-88
2022/06/06 09:38:03;;;;;;;1.30;1.30;;;23.80;99.90;;;;;;5066107;28;20171;-92
2022/06/06 09:40:38;;;;;;;2.25;1.63;;;23.90;99.90;;;;;;5053791;28;20202;-86
2022/06/06 09:43:08;;;;;;;2.03;1.30;;;23.80;99.90;;;;;;5053178;28;20199;-87
2022/06/06 09:46:07;;;;;;;1.30;1.30;;;23.90;99.90;;;;;;5053590;28;20607;-87
2022/06/06 09:49:12;;;;;;;2.35;1.65;;;24.00;99.90;;;;;;5053564;28;20152;-87
2022/06/06 09:51:56;;;;;;;1.58;1.58;;;24.40;99.90;;;;;;5053005;28;20203;-86
2022/06/06 10:01:06;;;;;;;1.25;1.25;;;25.30;99.90;;;;;;5053926;28;20566;-91
2022/06/06 10:03:49;;;;;;;2.22;1.42;;;25.20;99.90;;;;;;5055512;28;20167;-92
2022/06/06 10:06:53;;;;;;;1.48;1.38;;;25.10;99.90;;;;;;5055226;28;20191;-94
2022/06/06 10:09:38;;;;;;;1.40;1.35;;;24.90;99.90;;;;;;5060970;28;20156;-86
2022/06/06 10:12:07;;;;;;;2.65;1.40;;;24.80;99.90;;;;;;5060002;28;20208;-90
2022/06/06 10:14:37;;;;;;;1.75;1.55;;;24.70;99.90;;;;;;5060922;28;20539;-86
2022/06/06 10:17:39;;;;;;;3.15;1.20;;;24.60;99.90;;;;;;5066138;28;20182;-88
2022/06/06 10:20:16;;;;;;;1.52;1.40;;;24.50;99.90;;;;;;5061851;28;20232;-92
2022/06/06 10:23:20;;;;;;;1.60;1.50;;;24.60;99.90;;;;;;5061477;28;20359;-90
2022/06/06 10:26:02;;;;;;;1.50;1.50;;;24.80;99.90;;;;;;5040861;28;20594;-87
2022/06/06 10:29:11;;;;;;;1.30;1.20;;;25.00;99.90;;;;;;5063006;28;20612;-90
2022/06/06 10:31:39;;;;;;;1.00;1.00;;;25.10;99.90;;;;;;5059741;28;20252;-90
2022/06/06 10:34:08;;;;;;;2.35;1.58;;;25.10;99.90;;;;;;5056280;28;20164;-95
2022/06/06 10:36:55;;;;;;;2.63;1.20;;;25.10;99.90;;;;;;5055002;28;20253;-95
2022/06/06 10:40:05;;;;;;;4.47;1.40;;;25.00;99.90;;;;;;5054747;28;20296;-95
2022/06/06 10:42:51;;;;;;;1.73;1.60;;;25.10;99.90;;;;;;5056045;28;20192;-89
2022/06/06 10:45:26;;;;;;;1.50;1.50;;;25.20;99.90;;;;;;5061429;28;20180;-88
2022/06/06 10:48:26;;;;;;;2.00;1.90;;;25.20;99.90;;;;;;5063457;28;20180;-91
2022/06/06 10:51:39;;;;;;;1.95;1.70;;;25.30;99.90;;;;;;5055347;28;20230;-95
2022/06/06 10:54:30;;;;;;;1.70;1.60;;;25.40;99.90;;;;;;5058783;28;20163;-92
2022/06/06 10:57:18;;;;;;;1.50;1.40;;;25.50;99.90;;;;;;5063517;23;20266;-86
2022/06/06 11:00:07;;;;;;;1.50;1.50;;;25.60;99.90;;;;;;4996495;28;20524;-90
2022/06/06 11:03:00;;;;;;;1.70;1.70;;;25.60;99.60;;;;;;4998318;28;20280;-91
2022/06/06 11:05:49;;;;;;;1.58;1.50;;;25.60;99.90;;;;;;5017810;28;20166;-93
2022/06/06 11:08:43;;;;;;;1.80;1.70;;;25.60;99.90;;;;;;5017967;28;20167;-89
2022/06/06 11:11:50;;;;;;;3.05;1.83;;;25.60;99.90;;;;;;5014193;28;20281;-88
2022/06/06 11:14:28;;;;;;;1.60;1.48;;;25.50;99.90;;;;;;5028500;28;20161;-91
2022/06/06 11:17:03;;;;;;;1.40;1.40;;;25.50;99.90;;;;;;5018770;28;20548;-90
2022/06/06 11:19:50;;;;;;;1.30;1.30;;;25.50;99.90;;;;;;5023230;28;20169;-95
2022/06/06 11:22:26;;;;;;;2.17;1.50;;;25.60;99.20;;;;;;5006711;28;20165;-96
2022/06/06 11:24:55;;;;;;;3.05;2.85;;;25.50;98.50;;;;;;5023886;28;20168;-95
2022/06/06 11:28:01;;;;;;;1.55;1.52;;;25.50;99.10;;;;;;5024498;28;20181;-85
2022/06/06 11:30:58;;;;;;;2.75;1.70;;;25.40;98.40;;;;;;5021162;28;20273;-85
2022/06/06 11:34:21;;;;;;;1.67;1.50;;;25.50;97.90;;;;;;5017922;28;20682;-84
2022/06/06 11:37:10;;;;;;;1.42;1.33;;;25.50;98.10;;;;;;4963789;29;20175;-89
2022/06/06 11:40:13;;;;;;;1.40;1.40;;;25.70;98.20;;;;;;4963404;29;20203;-94
2022/06/06 11:43:24;;;;;;;1.80;1.70;;;25.70;97.30;;;;;;4964799;29;20675;-87
2022/06/06 11:46:02;;;;;;;2.33;1.67;;;25.80;97.80;;;;;;4922825;29;20180;-88
2022/06/06 11:48:52;;;;;;;1.73;1.65;;;25.90;98.10;;;;;;4960666;29;20191;-91
2022/06/06 11:51:46;;;;;;;1.70;1.60;;;26.00;97.70;;;;;;4959403;29;20222;-91
2022/06/06 11:54:26;;;;;;;4.82;1.63;;;26.10;96.60;;;;;;4953970;29;20236;-88
2022/06/06 11:57:14;;;;;;;1.60;1.50;;;26.00;95.80;;;;;;4959744;28;20234;-90
2022/06/06 12:00:11;;;;;;;2.00;1.50;;;26.10;96.60;;;;;;4942709;29;20607;-89
2022/06/06 12:03:04;;;;;;;2.67;1.73;;;26.00;96.10;;;;;;4957448;29;20175;-92
2022/06/06 12:05:56;;;;;;;1.90;1.80;;;26.00;95.70;;;;;;4954975;28;20164;-94
2022/06/06 12:08:45;;;;;;;1.40;1.40;;;26.10;96.20;;;;;;4972008;28;20649;-94
2022/06/06 12:11:35;;;;;;;1.40;1.30;;;26.20;96.80;;;;;;4955886;29;20350;-96
2022/06/06 12:14:14;;;;;;;1.30;1.25;;;26.20;96.00;;;;;;4957965;29;20262;-91
2022/06/06 12:17:09;;;;;;;1.60;1.50;;;26.30;96.60;;;;;;4940768;29;20647;-94
2022/06/06 12:20:11;;;;;;;1.48;1.40;;;26.30;97.00;;;;;;4955387;29;20179;-85
2022/06/06 12:22:55;;;;;;;1.65;1.60;;;26.20;96.60;;;;;;4951356;29;20187;-85
2022/06/06 12:25:50;;;;;;;1.85;1.67;;;26.20;96.40;;;;;;4960959;29;20174;-91
2022/06/06 12:28:37;;;;;;;2.30;1.65;;;26.30;96.60;;;;;;4949867;29;20247;-89
2022/06/06 12:31:17;;;;;;;1.60;1.50;;;26.40;96.00;;;;;;4949964;29;20203;-87
2022/06/06 12:33:58;;;;;;;2.33;1.65;;;26.50;95.80;;;;;;4938683;29;20180;-86
2022/06/06 12:36:44;;;;;;;2.20;1.33;;;26.40;95.80;;;;;;4945058;29;20743;-92
2022/06/06 12:39:29;;;;;;;1.40;1.40;;;26.30;96.20;;;;;;4936347;29;20176;-90
2022/06/06 12:42:12;;;;;;;1.60;1.50;;;26.10;96.50;;;;;;4938246;29;20883;-86
2022/06/06 12:44:59;;;;;;;1.98;1.77;;;26.00;96.40;;;;;;4939314;29;20219;-84
2022/06/06 12:47:55;;;;;;;1.70;1.60;;;25.80;96.60;;;;;;4947783;28;20183;-89
2022/06/06 12:50:36;;;;;;;1.60;1.60;;;25.70;96.30;;;;;;4999288;28;20205;-88
2022/06/06 12:53:16;;;;;;;1.70;1.60;;;25.60;96.60;;;;;;4979990;28;20192;-87
2022/06/06 12:56:23;;;;;;;4.20;2.00;;;25.60;96.50;;;;;;4997687;28;20159;-84
2022/06/06 12:59:07;;;;;;;3.42;2.50;;;25.60;96.40;;;;;;5000198;28;20221;-85
2022/06/06 13:01:55;;;;;;;4.50;2.58;;;25.80;96.10;;;;;;4998175;28;20627;-84
2022/06/06 13:04:54;;;;;;;2.70;2.50;;;25.70;95.20;;;;;;5002244;28;20657;-84
2022/06/06 13:07:46;;;;;;;18.58;8.63;;;25.50;95.20;;;;;;4991495;28;20198;-85
2022/06/06 13:10:47;;;;;;;9.00;5.55;;;25.50;96.40;;;;;;4999052;28;20536;-83
2022/06/06 13:13:35;;;;;;;8.38;3.40;;;25.50;96.70;;;;;;4998134;28;20622;-84
2022/06/06 13:16:27;;;;;;;21.42;10.25;;;25.50;97.90;;;;;;4974404;28;20273;-87
2022/06/06 13:19:14;;;;;;;6.90;4.90;;;25.70;95.60;;;;;;4997495;28;20200;-88
2022/06/06 13:22:00;;;;;;;1.83;1.73;;;25.80;96.40;;;;;;4996016;28;20165;-91
2022/06/06 13:24:33;;;;;;;1.85;1.75;;;25.80;95.60;;;;;;4995369;28;20162;-92
2022/06/06 13:27:14;;;;;;;1.80;1.70;;;25.90;96.00;;;;;;4994904;28;20166;-91
2022/06/06 13:29:41;;;;;;;2.90;2.70;;;26.10;95.10;;;;;;4995719;28;20220;-86
2022/06/06 13:32:17;;;;;;;1.95;1.70;;;26.20;96.10;;;;;;4977523;28;20233;-88
2022/06/06 13:35:16;;;;;;;1.77;1.67;;;26.20;95.40;;;;;;4994672;28;20570;-91
2022/06/06 13:38:03;;;;;;;2.80;2.35;;;26.10;94.70;;;;;;4997495;28;20185;-88
2022/06/06 13:40:41;;;;;;;2.08;1.92;;;26.10;94.70;;;;;;5006453;28;20170;-88
2022/06/06 13:43:24;;;;;;;5.43;3.50;;;26.30;96.10;;;;;;4999385;28;20177;-88
2022/06/06 13:46:23;;;;;;;2.47;2.10;;;26.40;96.50;;;;;;5004969;28;20245;-84
2022/06/06 13:48:58;;;;;;;2.35;1.85;;;26.50;96.30;;;;;;4998308;28;20177;-87
2022/06/06 13:51:34;;;;;;;2.00;1.90;;;26.70;96.10;;;;;;5023042;28;20200;-84
2022/06/06 13:54:05;;;;;;;1.75;1.65;;;26.70;95.80;;;;;;4999381;28;20169;-88
2022/06/06 13:56:47;;;;;;;2.17;1.70;;;26.80;96.10;;;;;;5020934;28;20188;-86
2022/06/06 13:59:24;;;;;;;2.20;1.92;;;26.70;95.40;;;;;;4985217;28;20640;-90
2022/06/06 14:02:29;;;;;;;1.88;1.77;;;26.60;95.60;;;;;;5019735;28;20191;-89
2022/06/06 14:05:23;;;;;;;1.73;1.63;;;26.50;96.80;;;;;;5011894;28;20256;-92
2022/06/06 14:08:16;;;;;;;3.35;2.15;;;26.20;96.80;;;;;;5026541;28;20168;-88
2022/06/06 14:11:00;;;;;;;1.90;1.80;;;26.00;97.50;;;;;;5015220;28;20200;-84
2022/06/06 14:13:38;;;;;;;1.92;1.83;;;25.90;98.10;;;;;;5007111;28;20244;-82
2022/06/06 14:16:28;;;;;;;3.35;2.10;;;25.80;97.80;;;;;;5014721;28;20202;-85
2022/06/06 14:19:32;;;;;;;2.63;1.80;;;25.70;97.30;;;;;;5027045;28;20169;-85
2022/06/06 14:22:08;;;;;;;1.70;1.60;;;25.60;96.90;;;;;;5031089;28;20172;-86
2022/06/06 14:24:36;;;;;;;1.98;1.83;;;25.70;97.70;;;;;;5011357;28;20169;-84
2022/06/06 14:27:12;;;;;;;3.25;1.85;;;25.60;97.10;;;;;;5003510;28;20188;-85
2022/06/06 14:30:03;;;;;;;1.88;1.50;;;25.60;96.40;;;;;;5012162;28;20229;-84
2022/06/06 14:33:00;;;;;;;1.90;1.80;;;25.80;95.90;;;;;;5035490;28;20284;-85
2022/06/06 14:35:30;;;;;;;2.33;2.05;;;26.00;95.60;;;;;;5033816;28;20169;-84
2022/06/06 14:38:30;;;;;;;2.45;1.90;;;26.20;95.30;;;;;;5031843;28;20192;-85
2022/06/06 14:41:00;;;;;;;4.63;2.42;;;26.20;95.30;;;;;;5030316;28;20261;-85
2022/06/06 14:43:46;;;;;;;2.33;2.13;;;26.10;95.30;;;;;;5032402;28;20221;-86
2022/06/06 14:46:12;;;;;;;2.10;1.92;;;26.10;95.80;;;;;;5028101;28;20480;-84
2022/06/06 14:48:45;;;;;;;2.05;1.95;;;26.00;96.40;;;;;;5023814;28;20165;-88
2022/06/06 14:51:13;;;;;;;1.98;1.85;;;25.90;96.50;;;;;;5021014;28;20197;-83
2022/06/06 14:53:54;;;;;;;1.85;1.73;;;25.90;96.30;;;;;;5020784;28;20196;-83